Time;durP1;ratioP1;P1;durP2;ratioP2;P2;SDS_P1;SDS_P2;PMS_P1;PMS_P2;Temp;Humidity;BMP_temperature;BMP_pressure;BME280_temperature;BME280_humidity;BME280_pressure;Samples;Min_cycle;Max_cycle;Signal;HPM_P1;HPM_P2
2023/07/19 00:00:17;;;;;;;4.47;2.77;;;20.50;60.70;;;;;;5032502;28;20634;-79
2023/07/19 00:02:46;;;;;;;4.80;3.30;;;20.60;61.40;;;;;;5032586;28;20216;-79
2023/07/19 00:05:12;;;;;;;6.20;3.37;;;20.50;61.50;;;;;;5032455;28;20674;-79
2023/07/19 00:07:37;;;;;;;5.10;3.03;;;20.50;61.80;;;;;;5032589;28;20699;-79
2023/07/19 00:10:05;;;;;;;5.97;2.13;;;20.50;62.30;;;;;;5035424;28;20222;-79
2023/07/19 00:12:31;;;;;;;2.93;2.00;;;20.50;62.80;;;;;;5050067;28;20181;-79
2023/07/19 00:14:57;;;;;;;2.90;1.70;;;20.40;63.10;;;;;;5050380;28;20619;-79
2023/07/19 00:17:23;;;;;;;3.30;1.80;;;20.40;63.40;;;;;;5032406;28;20593;-79
2023/07/19 00:19:49;;;;;;;4.17;1.80;;;20.40;63.80;;;;;;5049924;28;20710;-78
2023/07/19 00:22:14;;;;;;;3.40;1.50;;;20.30;64.10;;;;;;5050375;28;20177;-80
2023/07/19 00:24:40;;;;;;;3.03;1.87;;;20.30;64.40;;;;;;5050213;28;20185;-79
2023/07/19 00:27:06;;;;;;;5.10;2.27;;;20.30;64.90;;;;;;5032918;28;20180;-78
2023/07/19 00:29:32;;;;;;;3.33;2.23;;;20.20;65.30;;;;;;5031902;28;20708;-78
2023/07/19 00:31:58;;;;;;;2.27;1.30;;;20.20;65.70;;;;;;5015919;28;20169;-79
2023/07/19 00:34:24;;;;;;;3.40;1.87;;;20.20;66.10;;;;;;5049957;28;20967;-77
2023/07/19 00:36:50;;;;;;;3.00;1.70;;;20.20;66.50;;;;;;5050267;28;20169;-78
2023/07/19 00:39:15;;;;;;;3.07;1.50;;;20.10;66.70;;;;;;5031909;28;20196;-77
2023/07/19 00:41:41;;;;;;;5.00;1.60;;;20.20;67.10;;;;;;5032536;28;20197;-77
2023/07/19 00:44:07;;;;;;;5.60;1.30;;;20.10;67.50;;;;;;5050000;28;20236;-77
2023/07/19 00:46:34;;;;;;;4.87;1.67;;;20.10;67.90;;;;;;5035611;28;20694;-78
2023/07/19 00:48:59;;;;;;;4.67;1.30;;;20.10;68.50;;;;;;5033739;28;20187;-78
2023/07/19 00:51:25;;;;;;;3.53;1.47;;;20.10;68.90;;;;;;5035692;28;20575;-77
2023/07/19 00:53:52;;;;;;;3.03;1.43;;;20.10;69.30;;;;;;5019722;28;20618;-78
2023/07/19 00:56:19;;;;;;;3.77;1.73;;;20.10;69.80;;;;;;5020743;28;20177;-78
2023/07/19 00:58:45;;;;;;;2.57;1.30;;;20.10;70.20;;;;;;5020954;28;21247;-78
2023/07/19 01:01:13;;;;;;;4.27;1.50;;;20.10;70.60;;;;;;5020997;28;20643;-78
2023/07/19 01:03:39;;;;;;;3.10;1.60;;;20.10;71.10;;;;;;5021859;28;20615;-78
2023/07/19 01:06:05;;;;;;;3.20;1.30;;;20.10;71.20;;;;;;5055719;28;20613;-77
2023/07/19 01:08:31;;;;;;;2.30;1.40;;;20.10;71.50;;;;;;5039486;28;20583;-77
2023/07/19 01:10:57;;;;;;;2.30;1.50;;;20.00;71.90;;;;;;5057214;28;20583;-77
2023/07/19 01:13:22;;;;;;;4.00;1.40;;;20.00;72.40;;;;;;5038899;28;20180;-76
2023/07/19 01:15:48;;;;;;;3.23;2.03;;;20.00;72.80;;;;;;5024091;28;20273;-78
2023/07/19 01:18:18;;;;;;;2.47;1.10;;;20.00;73.20;;;;;;5048473;28;20590;-77
2023/07/19 01:20:44;;;;;;;5.60;1.70;;;20.00;73.70;;;;;;5052888;28;20623;-78
2023/07/19 01:23:10;;;;;;;3.07;1.40;;;20.00;74.00;;;;;;5055739;28;20611;-78
2023/07/19 01:25:35;;;;;;;3.03;1.50;;;19.90;74.40;;;;;;5034698;28;20599;-78
2023/07/19 01:28:01;;;;;;;3.13;1.30;;;19.90;74.60;;;;;;5016580;28;20272;-79
2023/07/19 01:30:27;;;;;;;4.17;1.30;;;19.80;74.90;;;;;;5049632;28;20579;-78
2023/07/19 01:32:53;;;;;;;3.40;1.10;;;19.80;75.10;;;;;;5054730;28;20223;-78
2023/07/19 01:35:19;;;;;;;4.57;1.90;;;19.80;75.50;;;;;;5053171;28;20207;-78
2023/07/19 01:37:46;;;;;;;3.77;1.30;;;19.70;76.10;;;;;;5019393;28;20213;-79
2023/07/19 01:40:12;;;;;;;3.33;1.30;;;19.70;76.50;;;;;;5034986;28;20627;-79
2023/07/19 01:42:39;;;;;;;3.90;1.70;;;19.70;76.80;;;;;;5019092;28;20640;-78
2023/07/19 01:45:05;;;;;;;3.27;1.30;;;19.70;77.30;;;;;;5019094;28;20863;-78
2023/07/19 01:47:30;;;;;;;4.93;1.70;;;19.60;77.90;;;;;;5053297;28;21155;-78
2023/07/19 01:49:56;;;;;;;3.43;1.80;;;19.60;77.90;;;;;;5051379;28;20677;-78
2023/07/19 01:52:22;;;;;;;5.83;1.63;;;19.60;78.50;;;;;;5052759;28;20172;-78
2023/07/19 01:54:48;;;;;;;3.10;1.40;;;19.60;78.80;;;;;;5051705;28;20205;-78
2023/07/19 01:57:14;;;;;;;3.80;1.60;;;19.60;79.20;;;;;;5052882;28;20286;-78
2023/07/19 01:59:40;;;;;;;3.33;2.00;;;19.60;79.70;;;;;;5052488;28;20290;-78
2023/07/19 02:02:05;;;;;;;5.30;2.17;;;19.50;79.90;;;;;;5051092;28;20633;-79
2023/07/19 02:04:31;;;;;;;2.80;1.83;;;19.50;80.50;;;;;;5051057;28;20200;-79
2023/07/19 02:06:57;;;;;;;6.80;1.47;;;19.50;81.00;;;;;;5035355;28;20179;-79
2023/07/19 02:09:23;;;;;;;2.93;1.63;;;19.50;81.30;;;;;;5052456;28;20173;-78
2023/07/19 02:11:48;;;;;;;4.13;1.77;;;19.40;81.80;;;;;;5051354;28;20169;-79
2023/07/19 02:14:14;;;;;;;6.87;2.20;;;19.40;82.30;;;;;;5053448;28;20212;-79
2023/07/19 02:16:44;;;;;;;4.53;1.97;;;19.40;82.80;;;;;;5054303;28;20572;-78
2023/07/19 02:19:10;;;;;;;3.23;1.57;;;19.30;83.10;;;;;;5017995;28;20587;-79
2023/07/19 02:21:36;;;;;;;6.70;2.13;;;19.30;83.60;;;;;;5035188;28;20623;-79
2023/07/19 02:24:04;;;;;;;3.57;1.70;;;19.30;84.20;;;;;;5001741;28;21026;-78
2023/07/19 02:26:34;;;;;;;5.37;2.20;;;19.30;84.80;;;;;;5053256;28;20263;-78
2023/07/19 02:28:59;;;;;;;5.70;1.90;;;19.30;85.20;;;;;;5034140;28;20633;-79
2023/07/19 02:31:28;;;;;;;5.53;1.90;;;19.30;85.60;;;;;;5018288;28;20582;-78
2023/07/19 02:33:54;;;;;;;4.60;1.87;;;19.30;86.50;;;;;;5051838;28;20614;-78
2023/07/19 02:36:20;;;;;;;4.43;1.77;;;19.30;86.60;;;;;;5023099;28;20564;-78
2023/07/19 02:38:46;;;;;;;2.63;1.57;;;19.20;86.70;;;;;;5034240;28;21537;-78
2023/07/19 02:41:15;;;;;;;5.47;1.90;;;19.30;87.20;;;;;;5033905;28;20209;-78
2023/07/19 02:43:41;;;;;;;6.10;2.80;;;19.30;87.50;;;;;;5052507;28;20560;-78
2023/07/19 02:46:10;;;;;;;3.70;2.00;;;19.20;88.50;;;;;;5033967;28;20590;-78
2023/07/19 02:48:35;;;;;;;4.40;2.20;;;19.30;88.70;;;;;;5001249;28;20177;-78
2023/07/19 02:51:01;;;;;;;6.60;2.20;;;19.20;89.60;;;;;;5033725;28;20602;-78
2023/07/19 02:53:27;;;;;;;4.23;1.90;;;19.20;90.00;;;;;;5051729;28;20584;-78
2023/07/19 02:55:53;;;;;;;3.97;1.80;;;19.30;90.00;;;;;;5017844;28;20331;-78
2023/07/19 02:58:19;;;;;;;2.70;1.77;;;19.30;90.00;;;;;;5051536;28;20575;-79
2023/07/19 03:00:45;;;;;;;8.70;3.67;;;19.30;90.10;;;;;;5033835;28;20615;-78
2023/07/19 03:03:11;;;;;;;3.77;2.00;;;19.30;90.30;;;;;;5051195;28;20169;-78
2023/07/19 03:05:42;;;;;;;4.47;1.83;;;19.30;90.40;;;;;;5033630;28;20603;-78
2023/07/19 03:08:08;;;;;;;2.27;1.60;;;19.30;90.50;;;;;;5017133;28;20587;-78
2023/07/19 03:10:35;;;;;;;5.43;2.10;;;19.30;90.60;;;;;;5033908;28;20583;-79
2023/07/19 03:13:02;;;;;;;5.30;1.60;;;19.30;90.70;;;;;;5020237;28;20575;-78
2023/07/19 03:15:32;;;;;;;6.13;2.67;;;19.30;90.90;;;;;;5017237;28;20672;-78
2023/07/19 03:18:02;;;;;;;5.60;1.60;;;19.30;91.10;;;;;;5000946;28;20930;-78
2023/07/19 03:20:29;;;;;;;2.67;1.53;;;19.30;91.30;;;;;;5050631;28;20630;-78
2023/07/19 03:22:56;;;;;;;5.80;2.60;;;19.40;91.40;;;;;;5016794;28;21187;-78
2023/07/19 03:25:23;;;;;;;4.90;1.90;;;19.40;91.70;;;;;;5032919;28;20949;-78
2023/07/19 03:27:49;;;;;;;3.60;2.13;;;19.50;91.80;;;;;;5016981;28;20594;-79
2023/07/19 03:30:14;;;;;;;3.03;1.93;;;19.50;92.00;;;;;;5032325;28;20670;-78
2023/07/19 03:32:40;;;;;;;4.63;1.80;;;19.50;92.20;;;;;;5050974;28;20679;-78
2023/07/19 03:35:07;;;;;;;3.30;1.57;;;19.50;92.30;;;;;;5032910;28;20263;-78
2023/07/19 03:37:36;;;;;;;2.43;1.37;;;19.50;92.40;;;;;;5050985;28;20172;-78
2023/07/19 03:40:04;;;;;;;4.07;1.67;;;19.50;92.60;;;;;;5032411;28;20680;-78
2023/07/19 03:42:31;;;;;;;6.10;1.73;;;19.60;92.70;;;;;;5032220;28;20603;-78
2023/07/19 03:44:57;;;;;;;4.67;1.87;;;19.60;92.90;;;;;;5032963;28;20631;-79
2023/07/19 03:47:24;;;;;;;5.10;1.60;;;19.50;92.90;;;;;;5017407;28;20169;-78
2023/07/19 03:49:50;;;;;;;3.87;1.80;;;19.60;93.00;;;;;;5033296;28;20255;-78
2023/07/19 03:52:15;;;;;;;4.83;1.60;;;19.60;93.10;;;;;;5032444;28;21217;-79
2023/07/19 03:54:41;;;;;;;6.03;2.47;;;19.60;93.10;;;;;;5050697;28;20247;-79
2023/07/19 03:57:07;;;;;;;3.90;2.20;;;19.60;93.20;;;;;;5032682;28;20191;-78
2023/07/19 03:59:33;;;;;;;3.77;2.00;;;19.70;93.40;;;;;;5032219;28;20683;-79
2023/07/19 04:01:58;;;;;;;4.10;2.07;;;19.70;93.40;;;;;;5032248;28;20176;-78
2023/07/19 04:04:24;;;;;;;3.63;1.90;;;19.70;93.60;;;;;;5015614;28;20193;-78
2023/07/19 04:06:50;;;;;;;4.00;1.93;;;19.70;93.70;;;;;;5032550;28;20580;-78
2023/07/19 04:09:17;;;;;;;3.17;1.80;;;19.80;94.20;;;;;;5049882;28;20239;-79
2023/07/19 04:11:43;;;;;;;4.00;2.03;;;19.90;94.00;;;;;;5016113;28;20239;-78
2023/07/19 04:14:08;;;;;;;3.03;1.83;;;19.90;93.90;;;;;;5049655;28;20623;-79
2023/07/19 04:16:34;;;;;;;3.57;1.83;;;20.00;94.00;;;;;;5016055;28;20292;-78
2023/07/19 04:19:00;;;;;;;3.90;1.70;;;20.00;94.00;;;;;;5015657;28;20570;-78
2023/07/19 04:21:26;;;;;;;3.93;1.40;;;20.10;94.00;;;;;;5016276;28;20281;-78
2023/07/19 04:23:52;;;;;;;3.73;1.73;;;20.10;94.10;;;;;;5034807;28;21698;-78
2023/07/19 04:26:18;;;;;;;4.13;1.70;;;20.20;94.00;;;;;;5035217;28;20165;-78
2023/07/19 04:28:44;;;;;;;7.10;1.70;;;20.30;94.00;;;;;;5016234;28;20625;-78
2023/07/19 04:31:11;;;;;;;3.80;1.50;;;20.30;93.90;;;;;;5015560;28;20599;-78
2023/07/19 04:33:37;;;;;;;5.10;1.97;;;20.40;94.00;;;;;;5016804;28;20682;-78
2023/07/19 04:36:16;;;;;;;3.53;1.87;;;20.50;94.00;;;;;;5032818;28;20173;-78
2023/07/19 04:38:45;;;;;;;3.20;1.93;;;20.50;94.10;;;;;;5017093;28;20591;-78
2023/07/19 04:41:11;;;;;;;5.60;1.73;;;20.60;94.00;;;;;;5032381;28;20639;-78
2023/07/19 04:43:37;;;;;;;2.90;1.70;;;20.70;94.00;;;;;;5033036;28;20587;-78
2023/07/19 04:46:05;;;;;;;3.83;2.10;;;20.80;93.90;;;;;;5033225;28;20670;-78
2023/07/19 04:48:32;;;;;;;3.70;1.40;;;20.90;93.80;;;;;;5032734;28;20587;-79
2023/07/19 04:50:58;;;;;;;3.07;1.90;;;20.90;93.70;;;;;;5015901;28;21041;-79
2023/07/19 04:53:25;;;;;;;6.50;2.20;;;21.00;93.70;;;;;;5031670;28;20592;-79
2023/07/19 04:55:55;;;;;;;3.23;1.67;;;21.10;93.60;;;;;;5031926;28;20655;-79
2023/07/19 04:58:23;;;;;;;4.23;1.53;;;21.20;93.50;;;;;;5032406;28;20629;-78
2023/07/19 05:00:49;;;;;;;3.50;2.13;;;21.30;93.40;;;;;;5032376;28;20627;-78
2023/07/19 05:03:14;;;;;;;6.20;2.80;;;21.30;93.30;;;;;;5015260;28;20169;-79
2023/07/19 05:05:41;;;;;;;3.90;2.13;;;21.40;93.30;;;;;;5032308;28;20556;-79
2023/07/19 05:08:07;;;;;;;5.07;1.50;;;21.50;93.20;;;;;;5015864;28;20590;-78
2023/07/19 05:10:37;;;;;;;5.00;1.70;;;21.50;93.10;;;;;;5031947;28;20591;-77
2023/07/19 05:13:06;;;;;;;3.47;1.70;;;21.60;93.00;;;;;;5049648;28;20584;-79
2023/07/19 05:15:33;;;;;;;3.20;1.87;;;21.60;92.90;;;;;;5031563;28;20636;-79
2023/07/19 05:18:00;;;;;;;2.70;1.40;;;21.70;92.90;;;;;;5030044;28;20572;-78
2023/07/19 05:20:28;;;;;;;3.03;1.77;;;21.80;92.90;;;;;;5029902;28;20630;-78
2023/07/19 05:22:54;;;;;;;7.23;2.20;;;21.80;92.80;;;;;;5052071;28;20610;-78
2023/07/19 05:25:20;;;;;;;4.27;1.70;;;21.80;92.70;;;;;;5037186;28;20607;-77
2023/07/19 05:27:46;;;;;;;4.17;1.87;;;21.90;92.70;;;;;;5050876;28;20169;-77
2023/07/19 05:30:12;;;;;;;2.70;1.33;;;22.00;92.50;;;;;;5049709;28;20619;-77
2023/07/19 05:32:38;;;;;;;5.13;1.90;;;22.00;92.40;;;;;;5031040;28;20636;-77
2023/07/19 05:35:04;;;;;;;6.20;1.70;;;22.00;92.30;;;;;;5032101;28;20615;-77
2023/07/19 05:37:30;;;;;;;3.77;2.20;;;22.10;92.30;;;;;;5038470;28;20168;-77
2023/07/19 05:39:56;;;;;;;9.07;2.40;;;22.10;92.30;;;;;;5052986;28;20689;-76
2023/07/19 05:42:21;;;;;;;4.90;1.90;;;22.10;92.20;;;;;;5033694;28;20172;-78
2023/07/19 05:44:47;;;;;;;3.00;1.73;;;22.20;92.20;;;;;;5035008;28;20209;-77
2023/07/19 05:47:13;;;;;;;5.20;1.93;;;22.20;92.10;;;;;;5052872;28;20295;-76
2023/07/19 05:49:38;;;;;;;4.00;1.70;;;22.30;92.10;;;;;;5035177;28;20184;-76
2023/07/19 05:52:04;;;;;;;5.80;1.97;;;22.30;92.00;;;;;;5034629;28;20199;-77
2023/07/19 05:54:30;;;;;;;4.90;1.83;;;22.40;91.90;;;;;;5034457;28;20201;-77
2023/07/19 05:56:56;;;;;;;4.93;2.10;;;22.50;92.00;;;;;;5018438;28;20582;-77
2023/07/19 05:59:21;;;;;;;6.50;2.97;;;22.60;92.00;;;;;;5034617;28;20755;-77
2023/07/19 06:01:47;;;;;;;4.60;1.97;;;22.80;92.00;;;;;;5049960;28;20215;-75
2023/07/19 06:04:14;;;;;;;5.13;2.33;;;22.90;91.90;;;;;;5051427;28;20220;-77
2023/07/19 06:06:40;;;;;;;3.83;1.70;;;23.00;91.70;;;;;;5035087;28;20180;-77
2023/07/19 06:09:08;;;;;;;4.73;1.47;;;23.10;91.60;;;;;;5051001;28;20980;-78
2023/07/19 06:11:35;;;;;;;3.73;1.60;;;23.20;91.50;;;;;;5018526;28;20242;-78
2023/07/19 06:14:02;;;;;;;3.60;1.73;;;23.20;91.30;;;;;;5043650;28;21006;-77
2023/07/19 06:16:28;;;;;;;4.07;1.63;;;23.30;91.00;;;;;;5052592;28;20563;-77
2023/07/19 06:18:54;;;;;;;3.93;1.97;;;23.30;91.10;;;;;;5052609;28;20568;-77
2023/07/19 06:21:19;;;;;;;3.93;1.80;;;23.30;90.60;;;;;;5034062;28;21003;-76
2023/07/19 06:23:45;;;;;;;4.63;2.13;;;23.30;90.50;;;;;;5035544;28;20574;-77
2023/07/19 06:26:11;;;;;;;13.10;2.40;;;23.40;90.50;;;;;;5034706;28;20169;-77
2023/07/19 06:28:37;;;;;;;5.27;2.10;;;23.40;90.40;;;;;;5034427;28;20618;-76
2023/07/19 06:31:02;;;;;;;3.83;1.53;;;23.50;90.40;;;;;;5035129;28;20315;-77
2023/07/19 06:33:29;;;;;;;4.40;2.00;;;23.50;90.30;;;;;;5054112;28;20248;-77
2023/07/19 06:35:55;;;;;;;3.47;1.80;;;23.60;90.30;;;;;;5070316;28;20269;-78
2023/07/19 06:38:21;;;;;;;4.40;2.17;;;23.60;90.20;;;;;;5035308;28;20583;-76
2023/07/19 06:40:47;;;;;;;5.70;3.17;;;23.60;90.20;;;;;;5033770;28;20689;-76
2023/07/19 06:43:13;;;;;;;2.90;1.87;;;23.60;90.10;;;;;;5033947;28;20172;-76
2023/07/19 06:45:39;;;;;;;6.30;1.23;;;23.60;90.00;;;;;;5017638;28;20205;-75
2023/07/19 06:48:05;;;;;;;4.03;1.63;;;23.60;90.00;;;;;;5034351;28;20591;-76
2023/07/19 06:50:30;;;;;;;4.00;2.10;;;23.60;89.90;;;;;;5036536;28;20242;-78
2023/07/19 06:52:56;;;;;;;7.20;1.93;;;23.50;89.80;;;;;;5038813;28;21115;-78
2023/07/19 06:55:23;;;;;;;5.43;1.80;;;23.50;89.80;;;;;;5056170;28;20196;-77
2023/07/19 06:57:48;;;;;;;4.30;1.60;;;23.60;89.90;;;;;;5055378;28;20177;-77
2023/07/19 07:00:14;;;;;;;2.90;1.40;;;23.60;89.80;;;;;;5059287;28;20638;-77
2023/07/19 07:02:40;;;;;;;5.30;2.13;;;23.60;90.00;;;;;;5045225;28;20173;-77
2023/07/19 07:05:06;;;;;;;3.33;1.83;;;23.70;90.00;;;;;;5054997;28;21221;-77
2023/07/19 07:07:32;;;;;;;3.70;1.87;;;23.70;89.90;;;;;;5042245;28;20724;-77
2023/07/19 07:09:58;;;;;;;3.20;1.63;;;23.80;89.90;;;;;;5064891;28;20503;-77
2023/07/19 07:12:24;;;;;;;3.80;1.60;;;23.80;89.90;;;;;;5047308;28;20204;-78
2023/07/19 07:14:49;;;;;;;4.33;2.00;;;23.90;90.00;;;;;;5067120;28;20207;-77
2023/07/19 07:17:15;;;;;;;4.00;1.67;;;24.00;89.90;;;;;;5039498;28;20631;-78
2023/07/19 07:19:41;;;;;;;4.37;1.40;;;24.10;89.80;;;;;;5051214;28;20646;-77
2023/07/19 07:22:06;;;;;;;3.87;1.30;;;24.20;89.60;;;;;;5034648;28;20214;-77
2023/07/19 07:24:32;;;;;;;3.20;1.60;;;24.30;89.20;;;;;;5058832;28;20195;-78
2023/07/19 07:26:58;;;;;;;2.83;1.43;;;24.30;88.70;;;;;;5035833;28;20169;-77
2023/07/19 07:29:23;;;;;;;3.63;1.60;;;24.40;88.50;;;;;;5024097;28;20188;-77
2023/07/19 07:31:49;;;;;;;6.57;2.33;;;24.40;88.40;;;;;;5036936;28;20173;-77
2023/07/19 07:34:15;;;;;;;4.60;1.87;;;24.50;88.20;;;;;;5056780;28;20223;-77
2023/07/19 07:36:41;;;;;;;3.80;1.80;;;24.50;88.10;;;;;;5036506;28;20177;-78
2023/07/19 07:39:06;;;;;;;3.40;1.50;;;24.70;88.30;;;;;;5053468;28;20187;-78
2023/07/19 07:41:33;;;;;;;7.20;2.03;;;24.80;88.90;;;;;;5052907;28;20618;-78
2023/07/19 07:43:59;;;;;;;4.83;1.90;;;24.90;88.20;;;;;;5054250;28;20250;-78
2023/07/19 07:46:25;;;;;;;5.47;2.27;;;25.00;87.80;;;;;;5039998;28;20571;-78
2023/07/19 07:48:51;;;;;;;4.87;2.50;;;25.20;88.20;;;;;;5023179;28;20587;-77
2023/07/19 07:51:17;;;;;;;4.83;1.77;;;25.50;88.40;;;;;;5047668;28;20595;-78
2023/07/19 07:53:42;;;;;;;5.00;2.20;;;25.90;89.10;;;;;;5051595;28;20184;-78
2023/07/19 07:56:08;;;;;;;5.70;1.90;;;26.30;88.70;;;;;;5068412;28;20192;-77
2023/07/19 07:58:34;;;;;;;3.50;2.20;;;26.70;87.20;;;;;;5055093;28;20168;-78
2023/07/19 08:01:00;;;;;;;6.90;2.23;;;26.90;85.70;;;;;;5035553;28;20224;-77
2023/07/19 08:03:26;;;;;;;3.77;1.60;;;27.10;84.50;;;;;;5040012;28;20157;-77
2023/07/19 08:05:54;;;;;;;6.10;2.60;;;27.20;83.10;;;;;;5039430;28;20618;-77
2023/07/19 08:08:19;;;;;;;3.57;1.83;;;27.30;82.50;;;;;;5037973;28;20975;-78
2023/07/19 08:10:45;;;;;;;2.93;1.83;;;27.70;83.10;;;;;;5040741;28;20587;-78
2023/07/19 08:13:11;;;;;;;4.77;1.40;;;28.10;83.50;;;;;;5057088;28;20177;-77
2023/07/19 08:15:37;;;;;;;4.57;1.60;;;28.50;82.30;;;;;;5054678;28;20608;-77
2023/07/19 08:18:03;;;;;;;3.50;1.90;;;28.80;81.00;;;;;;5037988;28;20218;-78
2023/07/19 08:20:29;;;;;;;3.70;1.70;;;29.10;79.70;;;;;;5032087;28;20726;-78
2023/07/19 08:22:54;;;;;;;3.60;1.60;;;29.40;79.00;;;;;;5032211;28;20700;-78
2023/07/19 08:25:21;;;;;;;3.40;1.47;;;29.60;77.30;;;;;;5034867;28;20719;-78
2023/07/19 08:27:47;;;;;;;4.77;1.60;;;29.70;75.00;;;;;;5024258;28;20177;-78
2023/07/19 08:30:16;;;;;;;3.50;1.33;;;29.70;73.20;;;;;;5051084;28;20602;-78
2023/07/19 08:32:46;;;;;;;3.43;1.40;;;29.50;71.70;;;;;;5033504;28;20687;-79
2023/07/19 08:35:14;;;;;;;6.20;1.30;;;29.40;69.60;;;;;;5032194;28;20614;-79
2023/07/19 08:37:43;;;;;;;2.27;1.10;;;29.20;69.20;;;;;;5050152;28;20591;-78
2023/07/19 08:40:10;;;;;;;2.60;1.30;;;29.00;69.30;;;;;;5035510;28;21190;-78
2023/07/19 08:42:37;;;;;;;4.60;1.30;;;28.80;69.20;;;;;;5032537;28;20622;-79
2023/07/19 08:45:05;;;;;;;3.73;1.10;;;28.60;69.20;;;;;;5032135;28;20626;-77
2023/07/19 08:47:32;;;;;;;2.07;1.13;;;28.50;68.70;;;;;;5033006;28;21234;-78
2023/07/19 08:50:00;;;;;;;2.90;1.00;;;28.40;68.50;;;;;;5050363;28;20935;-78
2023/07/19 08:52:28;;;;;;;2.90;1.50;;;28.20;68.10;;;;;;5032801;28;20973;-78
2023/07/19 08:54:54;;;;;;;3.70;1.27;;;28.10;68.10;;;;;;5031583;28;20626;-77
2023/07/19 08:57:20;;;;;;;3.10;1.50;;;28.00;68.20;;;;;;5032879;28;20613;-78
2023/07/19 08:59:46;;;;;;;3.60;1.20;;;28.00;68.30;;;;;;5015962;28;20675;-79
2023/07/19 09:02:11;;;;;;;3.97;2.30;;;28.00;68.60;;;;;;5034402;28;20187;-79
2023/07/19 09:04:38;;;;;;;3.00;1.27;;;28.00;68.80;;;;;;5033676;28;20193;-79
2023/07/19 09:07:04;;;;;;;4.17;1.30;;;27.90;68.60;;;;;;5037838;28;20169;-79
2023/07/19 09:09:31;;;;;;;4.80;1.40;;;28.00;69.60;;;;;;5036871;28;20580;-78
2023/07/19 09:11:58;;;;;;;7.33;1.43;;;28.30;70.90;;;;;;5038261;28;21428;-78
2023/07/19 09:14:36;;;;;;;5.83;1.70;;;28.60;70.30;;;;;;5039097;28;20631;-79
2023/07/19 09:17:03;;;;;;;3.80;1.57;;;28.80;68.80;;;;;;5044361;28;20589;-78
2023/07/19 09:19:28;;;;;;;3.90;1.10;;;28.80;67.90;;;;;;5061834;28;20618;-78
2023/07/19 09:21:57;;;;;;;2.83;1.00;;;28.60;66.50;;;;;;5055857;28;20659;-78
2023/07/19 09:24:23;;;;;;;2.63;1.10;;;28.30;66.20;;;;;;5054797;28;20173;-78
2023/07/19 09:26:49;;;;;;;7.00;1.30;;;28.10;66.40;;;;;;5053615;28;20579;-77
2023/07/19 09:29:14;;;;;;;4.53;1.77;;;27.80;66.90;;;;;;5018931;28;20207;-77
2023/07/19 09:32:00;;;;;;;4.37;1.50;;;27.60;67.10;;;;;;5019465;28;20580;-77
2023/07/19 09:34:38;;;;;;;3.13;1.20;;;27.30;67.70;;;;;;5022296;28;20246;-78
2023/07/19 09:37:04;;;;;;;4.23;1.87;;;27.10;68.10;;;;;;5022637;28;20599;-78
2023/07/19 09:39:34;;;;;;;4.57;1.40;;;27.10;70.00;;;;;;5037991;28;20595;-78
2023/07/19 09:42:00;;;;;;;2.70;1.10;;;27.20;70.90;;;;;;5037316;28;21162;-78
2023/07/19 09:44:27;;;;;;;4.27;1.27;;;27.40;71.50;;;;;;5035516;28;20646;-77
2023/07/19 09:47:00;;;;;;;4.40;1.50;;;27.60;71.60;;;;;;5036434;28;20583;-77
2023/07/19 09:49:26;;;;;;;4.87;1.43;;;27.80;71.40;;;;;;5052550;28;20584;-80
2023/07/19 09:51:55;;;;;;;3.87;1.60;;;28.00;71.80;;;;;;5053731;28;20697;-79
2023/07/19 09:54:24;;;;;;;3.87;1.73;;;28.20;71.30;;;;;;5056462;28;20196;-79
2023/07/19 09:56:50;;;;;;;4.60;1.77;;;28.50;71.60;;;;;;5053003;28;20575;-78
2023/07/19 09:59:24;;;;;;;6.90;1.40;;;28.90;71.70;;;;;;5052714;28;20624;-79
2023/07/19 10:01:49;;;;;;;6.47;1.30;;;29.50;72.30;;;;;;5053685;28;20556;-78
2023/07/19 10:04:26;;;;;;;6.47;1.40;;;30.00;71.60;;;;;;5054874;28;20601;-77
2023/07/19 10:07:07;;;;;;;3.90;1.50;;;30.40;70.10;;;;;;5037735;28;20575;-78
2023/07/19 10:09:35;;;;;;;4.17;1.30;;;30.50;67.70;;;;;;5035363;28;20571;-78
2023/07/19 10:12:05;;;;;;;4.30;1.60;;;30.70;66.90;;;;;;5035684;28;20587;-78
2023/07/19 10:14:32;;;;;;;3.83;1.10;;;30.80;64.70;;;;;;5037518;28;20615;-78
2023/07/19 10:17:03;;;;;;;3.50;1.30;;;30.80;63.70;;;;;;5066460;28;20594;-78
2023/07/19 10:19:29;;;;;;;3.60;1.20;;;30.90;62.70;;;;;;5060552;28;20579;-79
2023/07/19 10:22:06;;;;;;;4.23;2.07;;;31.10;63.80;;;;;;5045632;28;20637;-79
2023/07/19 10:24:35;;;;;;;3.80;1.00;;;31.60;63.60;;;;;;5066013;28;20215;-78
2023/07/19 10:27:08;;;;;;;4.70;1.53;;;32.30;65.10;;;;;;5063086;28;20654;-78
2023/07/19 10:29:44;;;;;;;3.93;1.40;;;33.00;63.20;;;;;;5061265;28;20604;-78
2023/07/19 10:32:11;;;;;;;3.30;0.93;;;33.40;60.70;;;;;;5035393;28;20616;-78
2023/07/19 10:34:37;;;;;;;4.60;1.30;;;33.60;59.70;;;;;;5026517;28;20609;-76
2023/07/19 10:37:04;;;;;;;2.40;1.40;;;33.70;57.30;;;;;;5040664;28;20578;-76
2023/07/19 10:39:31;;;;;;;4.90;1.10;;;33.60;56.20;;;;;;5061265;28;20650;-76
2023/07/19 10:41:58;;;;;;;3.07;1.33;;;33.40;55.30;;;;;;5041062;28;20640;-77
2023/07/19 10:44:26;;;;;;;4.70;1.17;;;33.20;54.60;;;;;;5070675;28;20670;-78
2023/07/19 10:46:55;;;;;;;3.60;1.60;;;32.90;54.30;;;;;;5047734;28;21506;-78
2023/07/19 10:49:24;;;;;;;3.30;1.30;;;32.70;53.90;;;;;;5054543;28;20624;-78
2023/07/19 10:51:54;;;;;;;4.43;1.50;;;32.60;54.30;;;;;;5001765;28;20959;-78
2023/07/19 10:54:20;;;;;;;2.67;1.43;;;32.50;54.30;;;;;;5017940;28;20619;-78
2023/07/19 10:56:53;;;;;;;4.10;1.30;;;32.50;54.20;;;;;;5023019;28;20645;-78
2023/07/19 10:59:19;;;;;;;2.33;1.23;;;32.30;54.00;;;;;;5054273;28;20610;-78
2023/07/19 11:01:49;;;;;;;3.90;1.30;;;32.30;54.00;;;;;;5066792;28;20630;-77
2023/07/19 11:04:18;;;;;;;4.13;2.60;;;32.20;53.90;;;;;;5062606;28;20607;-79
2023/07/19 11:07:00;;;;;;;3.53;1.53;;;32.20;54.00;;;;;;5050517;28;20599;-78
2023/07/19 11:09:27;;;;;;;3.43;1.10;;;32.20;53.70;;;;;;5060565;28;20556;-76
2023/07/19 11:11:53;;;;;;;2.70;1.20;;;32.40;54.20;;;;;;5055888;28;20588;-77
2023/07/19 11:14:33;;;;;;;6.23;1.50;;;32.60;54.70;;;;;;5035146;28;20622;-77
2023/07/19 11:16:59;;;;;;;5.50;1.90;;;32.80;54.40;;;;;;5038761;28;20628;-76
2023/07/19 11:19:35;;;;;;;2.27;1.50;;;33.20;55.00;;;;;;5033944;28;20629;-78
2023/07/19 11:22:01;;;;;;;3.27;1.43;;;33.60;54.20;;;;;;5035995;28;20634;-77
2023/07/19 11:24:38;;;;;;;4.83;1.90;;;34.20;54.90;;;;;;5028106;28;20623;-77
2023/07/19 11:27:06;;;;;;;4.40;1.80;;;34.50;52.70;;;;;;5041411;28;21011;-76
2023/07/19 11:29:33;;;;;;;3.80;1.27;;;34.60;52.00;;;;;;5053547;28;20579;-78
2023/07/19 11:32:20;;;;;;;7.13;2.30;;;34.70;51.30;;;;;;5038376;28;20685;-78
2023/07/19 11:34:51;;;;;;;6.00;1.77;;;34.70;49.60;;;;;;5054408;28;20707;-78
2023/07/19 11:37:18;;;;;;;6.70;1.73;;;34.60;49.80;;;;;;5032889;28;20601;-76
2023/07/19 11:39:45;;;;;;;3.20;1.30;;;34.40;49.40;;;;;;5050321;28;20579;-77
2023/07/19 11:42:11;;;;;;;2.93;1.30;;;34.20;49.00;;;;;;5053435;28;20589;-77
2023/07/19 11:44:44;;;;;;;3.67;1.67;;;34.00;49.40;;;;;;5036275;28;20623;-77
2023/07/19 11:47:11;;;;;;;4.40;1.30;;;34.00;49.60;;;;;;5016358;28;20199;-78
2023/07/19 11:49:36;;;;;;;4.10;1.67;;;34.00;49.80;;;;;;5032729;28;20593;-77
2023/07/19 11:52:02;;;;;;;3.97;1.80;;;33.90;49.60;;;;;;5033451;28;20574;-77
2023/07/19 11:54:28;;;;;;;3.50;1.40;;;33.80;49.30;;;;;;5051701;28;20247;-78
2023/07/19 11:56:54;;;;;;;2.40;1.10;;;33.70;49.00;;;;;;5033022;28;20195;-79
2023/07/19 11:59:20;;;;;;;5.50;2.00;;;33.50;48.60;;;;;;5049976;28;20584;-79
2023/07/19 12:01:47;;;;;;;3.40;1.47;;;33.40;48.60;;;;;;5032782;28;20628;-79
2023/07/19 12:04:13;;;;;;;3.30;1.23;;;33.20;48.50;;;;;;5050744;28;20195;-77
2023/07/19 12:06:39;;;;;;;4.17;1.20;;;33.10;49.30;;;;;;5050530;28;20639;-77
2023/07/19 12:09:04;;;;;;;3.07;1.30;;;33.20;49.90;;;;;;5049937;28;20258;-76
2023/07/19 12:11:30;;;;;;;2.13;1.03;;;33.30;50.00;;;;;;5032150;28;20180;-79
2023/07/19 12:13:58;;;;;;;2.73;1.23;;;33.50;49.70;;;;;;5018036;28;20191;-78
2023/07/19 12:16:24;;;;;;;3.63;1.97;;;33.50;48.80;;;;;;5036157;28;20179;-78
2023/07/19 12:18:50;;;;;;;3.70;0.80;;;33.50;47.90;;;;;;5051182;28;20604;-78
2023/07/19 12:21:16;;;;;;;2.90;0.90;;;33.40;47.20;;;;;;5065816;28;20627;-78
2023/07/19 12:23:42;;;;;;;2.13;0.80;;;33.20;46.90;;;;;;5057740;28;20177;-77
2023/07/19 12:26:09;;;;;;;2.53;1.07;;;33.00;46.60;;;;;;5050058;28;20176;-78
2023/07/19 12:28:34;;;;;;;3.40;1.17;;;32.80;46.40;;;;;;5048889;28;20579;-77
2023/07/19 12:31:00;;;;;;;3.30;1.20;;;32.60;46.90;;;;;;5021373;28;20591;-76
2023/07/19 12:33:26;;;;;;;2.10;0.90;;;32.50;47.20;;;;;;5049630;28;20208;-77
2023/07/19 12:35:53;;;;;;;3.70;0.90;;;32.40;47.10;;;;;;5036545;28;21302;-77
2023/07/19 12:38:19;;;;;;;3.00;1.10;;;32.30;47.10;;;;;;5032706;28;20633;-77
2023/07/19 12:40:45;;;;;;;2.17;0.70;;;32.20;46.90;;;;;;5050167;28;20676;-76
2023/07/19 12:43:11;;;;;;;2.40;0.93;;;32.10;47.00;;;;;;5033072;28;21084;-78
2023/07/19 12:45:36;;;;;;;3.53;0.80;;;32.10;47.00;;;;;;5037974;28;20635;-78